sensor_id;sensor_type;location;lat;lon;timestamp;pressure;altitude;pressure_sealevel;temperature;humidity
45403;BME280;47427;51.976;5.326;2023-01-31T00:00:04;102407.84;;;1.75;100.00
45403;BME280;47427;51.976;5.326;2023-01-31T00:03:29;102401.22;;;1.68;100.00
45403;BME280;47427;51.976;5.326;2023-01-31T00:06:50;102406.66;;;1.71;100.00
45403;BME280;47427;51.976;5.326;2023-01-31T00:10:15;102414.81;;;1.76;100.00
45403;BME280;47427;51.976;5.326;2023-01-31T00:13:38;102406.66;;;1.71;100.00
45403;BME280;47427;51.976;5.326;2023-01-31T00:17:00;102411.81;;;1.71;100.00
45403;BME280;47427;51.976;5.326;2023-01-31T00:20:22;102400.44;;;1.69;100.00
45403;BME280;47427;51.976;5.326;2023-01-31T00:23:45;102397.19;;;1.72;100.00
45403;BME280;47427;51.976;5.326;2023-01-31T00:27:08;102405.91;;;1.83;100.00
45403;BME280;47427;51.976;5.326;2023-01-31T00:30:30;102396.31;;;1.71;100.00
45403;BME280;47427;51.976;5.326;2023-01-31T00:33:52;102397.75;;;1.78;100.00
45403;BME280;47427;51.976;5.326;2023-01-31T00:37:15;102384.56;;;1.85;100.00
45403;BME280;47427;51.976;5.326;2023-01-31T00:40:38;102367.72;;;1.70;100.00
45403;BME280;47427;51.976;5.326;2023-01-31T00:44:01;102368.00;;;1.83;100.00
45403;BME280;47427;51.976;5.326;2023-01-31T00:47:24;102368.41;;;1.88;100.00
45403;BME280;47427;51.976;5.326;2023-01-31T00:50:46;102362.44;;;1.89;100.00
45403;BME280;47427;51.976;5.326;2023-01-31T00:54:08;102355.69;;;1.81;100.00
45403;BME280;47427;51.976;5.326;2023-01-31T00:57:31;102357.38;;;1.80;100.00
45403;BME280;47427;51.976;5.326;2023-01-31T01:00:52;102357.38;;;1.70;100.00
45403;BME280;47427;51.976;5.326;2023-01-31T01:04:15;102358.53;;;1.63;100.00
45403;BME280;47427;51.976;5.326;2023-01-31T01:07:37;102354.63;;;1.58;100.00
45403;BME280;47427;51.976;5.326;2023-01-31T01:11:06;102363.53;;;1.62;100.00
45403;BME280;47427;51.976;5.326;2023-01-31T01:14:28;102352.69;;;1.56;100.00
45403;BME280;47427;51.976;5.326;2023-01-31T01:17:49;102352.69;;;1.66;100.00
45403;BME280;47427;51.976;5.326;2023-01-31T01:21:17;102352.19;;;1.70;100.00
45403;BME280;47427;51.976;5.326;2023-01-31T01:24:39;102341.97;;;1.71;100.00
45403;BME280;47427;51.976;5.326;2023-01-31T01:28:03;102328.91;;;1.70;100.00
45403;BME280;47427;51.976;5.326;2023-01-31T01:31:26;102334.75;;;1.78;100.00
45403;BME280;47427;51.976;5.326;2023-01-31T01:34:51;102338.75;;;1.84;100.00
45403;BME280;47427;51.976;5.326;2023-01-31T01:38:12;102337.19;;;1.76;100.00
45403;BME280;47427;51.976;5.326;2023-01-31T01:41:33;102342.88;;;1.82;100.00
45403;BME280;47427;51.976;5.326;2023-01-31T01:45:00;102334.22;;;2.12;100.00
45403;BME280;47427;51.976;5.326;2023-01-31T01:48:29;102337.97;;;2.16;100.00
45403;BME280;47427;51.976;5.326;2023-01-31T01:51:50;102335.09;;;2.44;100.00
45403;BME280;47427;51.976;5.326;2023-01-31T01:55:32;102345.94;;;2.60;100.00
45403;BME280;47427;51.976;5.326;2023-01-31T01:59:00;102340.97;;;2.73;100.00
45403;BME280;47427;51.976;5.326;2023-01-31T02:02:23;102340.03;;;2.83;100.00
45403;BME280;47427;51.976;5.326;2023-01-31T02:05:55;102336.13;;;2.88;100.00
45403;BME280;47427;51.976;5.326;2023-01-31T02:13:00;102342.88;;;2.96;100.00
45403;BME280;47427;51.976;5.326;2023-01-31T02:16:23;102348.91;;;3.07;100.00
45403;BME280;47427;51.976;5.326;2023-01-31T02:31:18;102335.00;;;3.17;100.00
45403;BME280;47427;51.976;5.326;2023-01-31T02:38:43;102332.97;;;3.35;100.00
45403;BME280;47427;51.976;5.326;2023-01-31T02:46:18;102322.81;;;3.38;100.00
45403;BME280;47427;51.976;5.326;2023-01-31T02:49:53;102317.44;;;3.46;100.00
45403;BME280;47427;51.976;5.326;2023-01-31T02:53:23;102308.88;;;3.47;100.00
45403;BME280;47427;51.976;5.326;2023-01-31T02:56:47;102316.00;;;3.50;100.00
45403;BME280;47427;51.976;5.326;2023-01-31T03:00:10;102315.09;;;3.50;100.00
45403;BME280;47427;51.976;5.326;2023-01-31T03:03:34;102306.66;;;3.52;100.00
45403;BME280;47427;51.976;5.326;2023-01-31T03:07:21;102309.03;;;3.61;100.00
45403;BME280;47427;51.976;5.326;2023-01-31T03:11:00;102309.50;;;3.67;100.00
45403;BME280;47427;51.976;5.326;2023-01-31T03:14:28;102310.78;;;3.72;100.00
45403;BME280;47427;51.976;5.326;2023-01-31T03:18:09;102306.81;;;3.65;100.00
45403;BME280;47427;51.976;5.326;2023-01-31T03:21:35;102300.59;;;3.63;100.00
45403;BME280;47427;51.976;5.326;2023-01-31T03:24:59;102291.00;;;3.62;100.00
45403;BME280;47427;51.976;5.326;2023-01-31T03:28:27;102287.25;;;3.59;100.00
45403;BME280;47427;51.976;5.326;2023-01-31T03:31:53;102276.56;;;3.66;100.00
45403;BME280;47427;51.976;5.326;2023-01-31T03:35:20;102281.75;;;3.66;100.00
45403;BME280;47427;51.976;5.326;2023-01-31T03:46:25;102287.06;;;3.67;100.00
45403;BME280;47427;51.976;5.326;2023-01-31T03:49:49;102273.97;;;3.66;100.00
45403;BME280;47427;51.976;5.326;2023-01-31T03:57:03;102262.47;;;3.74;100.00
45403;BME280;47427;51.976;5.326;2023-01-31T04:00:26;102262.84;;;3.79;100.00
45403;BME280;47427;51.976;5.326;2023-01-31T04:07:17;102261.94;;;3.78;100.00
45403;BME280;47427;51.976;5.326;2023-01-31T04:10:41;102266.47;;;3.81;100.00
45403;BME280;47427;51.976;5.326;2023-01-31T04:14:03;102248.03;;;3.66;100.00
45403;BME280;47427;51.976;5.326;2023-01-31T04:17:25;102261.66;;;3.63;100.00
45403;BME280;47427;51.976;5.326;2023-01-31T04:20:47;102247.19;;;3.55;100.00
45403;BME280;47427;51.976;5.326;2023-01-31T04:24:10;102239.94;;;3.39;100.00
45403;BME280;47427;51.976;5.326;2023-01-31T04:27:31;102245.81;;;3.26;100.00
45403;BME280;47427;51.976;5.326;2023-01-31T04:30:55;102245.13;;;3.17;100.00
45403;BME280;47427;51.976;5.326;2023-01-31T04:34:36;102245.59;;;3.23;100.00
45403;BME280;47427;51.976;5.326;2023-01-31T04:37:59;102231.19;;;3.27;100.00
45403;BME280;47427;51.976;5.326;2023-01-31T04:41:21;102236.97;;;3.35;100.00
45403;BME280;47427;51.976;5.326;2023-01-31T04:44:43;102240.53;;;3.47;100.00
45403;BME280;47427;51.976;5.326;2023-01-31T04:48:05;102233.91;;;3.62;100.00
45403;BME280;47427;51.976;5.326;2023-01-31T04:51:28;102229.63;;;3.75;100.00
45403;BME280;47427;51.976;5.326;2023-01-31T04:54:49;102229.22;;;3.80;100.00
45403;BME280;47427;51.976;5.326;2023-01-31T04:58:12;102220.19;;;3.87;100.00
45403;BME280;47427;51.976;5.326;2023-01-31T05:01:33;102217.03;;;3.91;100.00
45403;BME280;47427;51.976;5.326;2023-01-31T05:04:55;102219.09;;;3.95;100.00
45403;BME280;47427;51.976;5.326;2023-01-31T05:08:18;102213.63;;;3.92;100.00
45403;BME280;47427;51.976;5.326;2023-01-31T05:11:39;102210.94;;;3.90;100.00
45403;BME280;47427;51.976;5.326;2023-01-31T05:15:03;102206.44;;;3.88;100.00
45403;BME280;47427;51.976;5.326;2023-01-31T05:18:28;102202.13;;;3.88;100.00
45403;BME280;47427;51.976;5.326;2023-01-31T05:21:49;102195.38;;;3.90;100.00
45403;BME280;47427;51.976;5.326;2023-01-31T05:25:21;102192.88;;;3.92;100.00
45403;BME280;47427;51.976;5.326;2023-01-31T05:28:42;102197.50;;;3.96;100.00
45403;BME280;47427;51.976;5.326;2023-01-31T05:32:08;102196.03;;;4.00;100.00
45403;BME280;47427;51.976;5.326;2023-01-31T05:35:30;102191.75;;;4.00;100.00
45403;BME280;47427;51.976;5.326;2023-01-31T05:38:51;102191.19;;;4.04;100.00
45403;BME280;47427;51.976;5.326;2023-01-31T05:42:14;102196.38;;;4.04;100.00
45403;BME280;47427;51.976;5.326;2023-01-31T05:45:36;102198.97;;;4.04;100.00
45403;BME280;47427;51.976;5.326;2023-01-31T05:48:59;102198.19;;;4.05;100.00
45403;BME280;47427;51.976;5.326;2023-01-31T05:52:22;102195.69;;;4.07;100.00
45403;BME280;47427;51.976;5.326;2023-01-31T05:55:43;102198.06;;;4.04;100.00
45403;BME280;47427;51.976;5.326;2023-01-31T05:59:07;102196.38;;;4.04;100.00
45403;BME280;47427;51.976;5.326;2023-01-31T06:02:29;102192.88;;;4.04;100.00
45403;BME280;47427;51.976;5.326;2023-01-31T06:05:52;102192.09;;;4.05;100.00
45403;BME280;47427;51.976;5.326;2023-01-31T06:09:14;102191.41;;;4.07;100.00
45403;BME280;47427;51.976;5.326;2023-01-31T06:12:37;102189.59;;;4.06;100.00
45403;BME280;47427;51.976;5.326;2023-01-31T06:15:58;102183.28;;;4.15;100.00
45403;BME280;47427;51.976;5.326;2023-01-31T06:19:21;102168.28;;;4.10;100.00
45403;BME280;47427;51.976;5.326;2023-01-31T06:22:46;102152.22;;;4.16;100.00
45403;BME280;47427;51.976;5.326;2023-01-31T06:26:08;102154.03;;;4.17;100.00
45403;BME280;47427;51.976;5.326;2023-01-31T06:29:31;102148.50;;;4.12;100.00
45403;BME280;47427;51.976;5.326;2023-01-31T06:32:52;102156.63;;;4.17;100.00
45403;BME280;47427;51.976;5.326;2023-01-31T06:36:16;102157.31;;;4.15;100.00
45403;BME280;47427;51.976;5.326;2023-01-31T06:39:39;102154.50;;;4.11;100.00
45403;BME280;47427;51.976;5.326;2023-01-31T06:43:00;102156.75;;;4.07;100.00
45403;BME280;47427;51.976;5.326;2023-01-31T06:46:23;102159.25;;;4.05;100.00
45403;BME280;47427;51.976;5.326;2023-01-31T06:49:45;102152.00;;;4.01;100.00
45403;BME280;47427;51.976;5.326;2023-01-31T06:53:07;102131.78;;;3.97;100.00
45403;BME280;47427;51.976;5.326;2023-01-31T06:56:29;102128.31;;;3.97;100.00
45403;BME280;47427;51.976;5.326;2023-01-31T06:59:52;102121.31;;;3.96;100.00
45403;BME280;47427;51.976;5.326;2023-01-31T07:03:14;102125.81;;;3.98;100.00
45403;BME280;47427;51.976;5.326;2023-01-31T07:08:38;102111.94;;;3.98;100.00
45403;BME280;47427;51.976;5.326;2023-01-31T07:12:01;102099.66;;;3.95;100.00
45403;BME280;47427;51.976;5.326;2023-01-31T07:15:23;102106.28;;;4.03;100.00
45403;BME280;47427;51.976;5.326;2023-01-31T07:18:44;102098.25;;;4.12;100.00
45403;BME280;47427;51.976;5.326;2023-01-31T07:22:06;102095.09;;;4.16;100.00
45403;BME280;47427;51.976;5.326;2023-01-31T07:25:29;102094.63;;;4.22;100.00
45403;BME280;47427;51.976;5.326;2023-01-31T07:28:55;102097.09;;;4.32;100.00
45403;BME280;47427;51.976;5.326;2023-01-31T07:32:17;102096.84;;;4.41;100.00
45403;BME280;47427;51.976;5.326;2023-01-31T07:35:40;102107.47;;;4.44;100.00
45403;BME280;47427;51.976;5.326;2023-01-31T07:39:03;102102.59;;;4.48;100.00
45403;BME280;47427;51.976;5.326;2023-01-31T07:42:24;102106.03;;;4.61;100.00
45403;BME280;47427;51.976;5.326;2023-01-31T07:45:48;102094.72;;;4.72;100.00
45403;BME280;47427;51.976;5.326;2023-01-31T07:49:11;102099.75;;;4.82;100.00
45403;BME280;47427;51.976;5.326;2023-01-31T07:52:32;102099.97;;;4.85;100.00
45403;BME280;47427;51.976;5.326;2023-01-31T07:56:12;102080.16;;;4.87;100.00
45403;BME280;47427;51.976;5.326;2023-01-31T07:59:34;102085.69;;;4.92;100.00
45403;BME280;47427;51.976;5.326;2023-01-31T08:02:57;102085.09;;;4.96;100.00
45403;BME280;47427;51.976;5.326;2023-01-31T08:06:39;102086.41;;;5.03;100.00
45403;BME280;47427;51.976;5.326;2023-01-31T08:10:02;102076.41;;;5.09;100.00
45403;BME280;47427;51.976;5.326;2023-01-31T08:13:25;102070.63;;;5.13;100.00
45403;BME280;47427;51.976;5.326;2023-01-31T08:16:48;102074.34;;;5.16;100.00
45403;BME280;47427;51.976;5.326;2023-01-31T08:20:10;102077.94;;;5.18;100.00
45403;BME280;47427;51.976;5.326;2023-01-31T08:23:33;102070.47;;;5.23;100.00
45403;BME280;47427;51.976;5.326;2023-01-31T08:26:56;102061.47;;;5.31;100.00
45403;BME280;47427;51.976;5.326;2023-01-31T08:30:19;102052.56;;;5.41;100.00
45403;BME280;47427;51.976;5.326;2023-01-31T08:33:42;102041.19;;;5.52;100.00
45403;BME280;47427;51.976;5.326;2023-01-31T08:37:03;102031.97;;;5.57;100.00
45403;BME280;47427;51.976;5.326;2023-01-31T08:40:25;102027.66;;;5.58;100.00
45403;BME280;47427;51.976;5.326;2023-01-31T08:43:48;102019.66;;;5.55;100.00
45403;BME280;47427;51.976;5.326;2023-01-31T08:47:09;102044.38;;;5.48;100.00
45403;BME280;47427;51.976;5.326;2023-01-31T08:50:32;102023.84;;;5.53;100.00
45403;BME280;47427;51.976;5.326;2023-01-31T08:53:56;102025.56;;;5.65;100.00
45403;BME280;47427;51.976;5.326;2023-01-31T08:57:17;102018.34;;;5.61;100.00
45403;BME280;47427;51.976;5.326;2023-01-31T09:00:42;102024.94;;;5.70;100.00
45403;BME280;47427;51.976;5.326;2023-01-31T09:04:04;102052.38;;;6.04;100.00
45403;BME280;47427;51.976;5.326;2023-01-31T09:07:26;102045.84;;;6.24;100.00
45403;BME280;47427;51.976;5.326;2023-01-31T09:10:53;102048.66;;;6.14;100.00
45403;BME280;47427;51.976;5.326;2023-01-31T09:14:15;102047.72;;;6.27;100.00
45403;BME280;47427;51.976;5.326;2023-01-31T09:17:39;102041.94;;;6.18;100.00
45403;BME280;47427;51.976;5.326;2023-01-31T09:21:07;102042.84;;;6.18;100.00
45403;BME280;47427;51.976;5.326;2023-01-31T09:24:29;102043.44;;;6.14;100.00
45403;BME280;47427;51.976;5.326;2023-01-31T09:27:52;102029.59;;;6.28;100.00
45403;BME280;47427;51.976;5.326;2023-01-31T09:31:17;102031.50;;;6.31;100.00
45403;BME280;47427;51.976;5.326;2023-01-31T09:34:41;102029.13;;;6.21;100.00
45403;BME280;47427;51.976;5.326;2023-01-31T09:38:04;102020.66;;;6.25;100.00
45403;BME280;47427;51.976;5.326;2023-01-31T09:41:36;102017.22;;;6.39;100.00
45403;BME280;47427;51.976;5.326;2023-01-31T09:45:16;101995.66;;;6.42;100.00
45403;BME280;47427;51.976;5.326;2023-01-31T09:48:49;102012.34;;;6.59;100.00
45403;BME280;47427;51.976;5.326;2023-01-31T09:52:11;102005.97;;;6.68;100.00
45403;BME280;47427;51.976;5.326;2023-01-31T10:07:22;102015.84;;;6.31;100.00
45403;BME280;47427;51.976;5.326;2023-01-31T10:10:51;102030.97;;;6.37;100.00
45403;BME280;47427;51.976;5.326;2023-01-31T10:14:36;102019.63;;;6.36;100.00
45403;BME280;47427;51.976;5.326;2023-01-31T10:18:09;102021.63;;;6.40;100.00
45403;BME280;47427;51.976;5.326;2023-01-31T10:21:46;102025.34;;;6.44;100.00
45403;BME280;47427;51.976;5.326;2023-01-31T10:32:56;102000.22;;;6.74;100.00
45403;BME280;47427;51.976;5.326;2023-01-31T10:36:45;101991.88;;;7.09;100.00
45403;BME280;47427;51.976;5.326;2023-01-31T10:40:36;102001.06;;;7.18;100.00
45403;BME280;47427;51.976;5.326;2023-01-31T10:47:53;101997.53;;;6.87;100.00
45403;BME280;47427;51.976;5.326;2023-01-31T10:51:34;101987.78;;;6.70;100.00
45403;BME280;47427;51.976;5.326;2023-01-31T10:55:20;101969.56;;;6.85;100.00
45403;BME280;47427;51.976;5.326;2023-01-31T10:58:48;101972.59;;;7.37;100.00
45403;BME280;47427;51.976;5.326;2023-01-31T11:02:22;101975.22;;;7.68;100.00
45403;BME280;47427;51.976;5.326;2023-01-31T11:05:56;101978.66;;;7.67;100.00
45403;BME280;47427;51.976;5.326;2023-01-31T11:09:19;101970.72;;;7.34;100.00
45403;BME280;47427;51.976;5.326;2023-01-31T11:13:02;101969.19;;;7.23;100.00
45403;BME280;47427;51.976;5.326;2023-01-31T11:16:30;101967.28;;;7.21;100.00
45403;BME280;47427;51.976;5.326;2023-01-31T11:19:55;101965.06;;;7.12;100.00
45403;BME280;47427;51.976;5.326;2023-01-31T11:23:24;101971.53;;;7.19;100.00
45403;BME280;47427;51.976;5.326;2023-01-31T11:27:03;101975.94;;;7.05;100.00
45403;BME280;47427;51.976;5.326;2023-01-31T11:30:37;101968.28;;;6.93;100.00
45403;BME280;47427;51.976;5.326;2023-01-31T11:34:03;101972.16;;;6.85;100.00
45403;BME280;47427;51.976;5.326;2023-01-31T11:37:26;101976.56;;;6.86;100.00
45403;BME280;47427;51.976;5.326;2023-01-31T11:40:51;101978.63;;;6.77;100.00
45403;BME280;47427;51.976;5.326;2023-01-31T11:44:19;101969.91;;;6.61;100.00
45403;BME280;47427;51.976;5.326;2023-01-31T11:47:46;101957.19;;;6.53;100.00
45403;BME280;47427;51.976;5.326;2023-01-31T11:51:24;101967.09;;;6.58;100.00
45403;BME280;47427;51.976;5.326;2023-01-31T11:54:56;101966.72;;;6.52;100.00
45403;BME280;47427;51.976;5.326;2023-01-31T12:01:50;101952.81;;;6.51;100.00
45403;BME280;47427;51.976;5.326;2023-01-31T12:05:17;101947.59;;;6.51;100.00
45403;BME280;47427;51.976;5.326;2023-01-31T12:08:41;101933.00;;;6.55;100.00
45403;BME280;47427;51.976;5.326;2023-01-31T12:12:30;101934.75;;;6.69;100.00
45403;BME280;47427;51.976;5.326;2023-01-31T12:16:00;101937.97;;;6.65;100.00
45403;BME280;47427;51.976;5.326;2023-01-31T12:24:04;101942.84;;;6.59;100.00
45403;BME280;47427;51.976;5.326;2023-01-31T12:28:12;101928.53;;;6.67;100.00
45403;BME280;47427;51.976;5.326;2023-01-31T12:47:48;101919.53;;;6.62;100.00
45403;BME280;47427;51.976;5.326;2023-01-31T12:52:07;101911.56;;;6.74;100.00
45403;BME280;47427;51.976;5.326;2023-01-31T12:55:46;101908.03;;;6.73;100.00
45403;BME280;47427;51.976;5.326;2023-01-31T12:59:42;101906.38;;;7.05;100.00
45403;BME280;47427;51.976;5.326;2023-01-31T13:10:51;101910.03;;;7.24;100.00
45403;BME280;47427;51.976;5.326;2023-01-31T13:14:21;101895.38;;;7.26;100.00
45403;BME280;47427;51.976;5.326;2023-01-31T13:17:44;101890.16;;;7.26;100.00
45403;BME280;47427;51.976;5.326;2023-01-31T13:21:10;101891.16;;;7.44;100.00
45403;BME280;47427;51.976;5.326;2023-01-31T13:24:39;101887.03;;;7.48;100.00
45403;BME280;47427;51.976;5.326;2023-01-31T13:28:12;101894.94;;;7.49;100.00
45403;BME280;47427;51.976;5.326;2023-01-31T13:32:15;101885.72;;;7.56;100.00
45403;BME280;47427;51.976;5.326;2023-01-31T13:35:41;101890.06;;;7.55;100.00
45403;BME280;47427;51.976;5.326;2023-01-31T13:39:41;101892.25;;;7.48;100.00
45403;BME280;47427;51.976;5.326;2023-01-31T13:43:14;101887.50;;;7.41;100.00
45403;BME280;47427;51.976;5.326;2023-01-31T13:46:51;101898.22;;;7.62;100.00
45403;BME280;47427;51.976;5.326;2023-01-31T13:54:43;101906.78;;;7.43;100.00
45403;BME280;47427;51.976;5.326;2023-01-31T13:58:22;101904.16;;;7.43;100.00
45403;BME280;47427;51.976;5.326;2023-01-31T14:01:46;101917.84;;;7.38;100.00
45403;BME280;47427;51.976;5.326;2023-01-31T14:16:52;101930.75;;;7.83;100.00
45403;BME280;47427;51.976;5.326;2023-01-31T14:20:29;101928.00;;;8.45;100.00
45403;BME280;47427;51.976;5.326;2023-01-31T14:23:51;101939.47;;;9.71;100.00
45403;BME280;47427;51.976;5.326;2023-01-31T14:31:34;101952.47;;;8.46;100.00
45403;BME280;47427;51.976;5.326;2023-01-31T14:34:57;101961.84;;;8.42;100.00
45403;BME280;47427;51.976;5.326;2023-01-31T14:39:06;101941.28;;;10.29;100.00
45403;BME280;47427;51.976;5.326;2023-01-31T14:43:04;101964.06;;;11.11;100.00
45403;BME280;47427;51.976;5.326;2023-01-31T14:50:32;101964.25;;;11.37;100.00
45403;BME280;47427;51.976;5.326;2023-01-31T14:58:33;101986.59;;;9.70;100.00
45403;BME280;47427;51.976;5.326;2023-01-31T15:01:56;101981.41;;;9.36;100.00
45403;BME280;47427;51.976;5.326;2023-01-31T15:12:56;101971.91;;;8.51;100.00
45403;BME280;47427;51.976;5.326;2023-01-31T15:16:30;101984.41;;;8.40;100.00
45403;BME280;47427;51.976;5.326;2023-01-31T15:20:18;101988.56;;;9.04;100.00
45403;BME280;47427;51.976;5.326;2023-01-31T15:23:42;101966.38;;;10.05;100.00
45403;BME280;47427;51.976;5.326;2023-01-31T15:27:21;101994.44;;;9.88;100.00
45403;BME280;47427;51.976;5.326;2023-01-31T15:30:45;101976.56;;;8.91;100.00
45403;BME280;47427;51.976;5.326;2023-01-31T15:34:22;101971.63;;;8.30;100.00
45403;BME280;47427;51.976;5.326;2023-01-31T15:37:57;101981.50;;;8.19;100.00
45403;BME280;47427;51.976;5.326;2023-01-31T15:41:38;101994.31;;;8.15;100.00
45403;BME280;47427;51.976;5.326;2023-01-31T15:45:24;101996.78;;;8.12;100.00
45403;BME280;47427;51.976;5.326;2023-01-31T15:48:46;102013.09;;;8.08;100.00
45403;BME280;47427;51.976;5.326;2023-01-31T15:52:19;102013.75;;;8.03;100.00
45403;BME280;47427;51.976;5.326;2023-01-31T15:55:45;102009.00;;;7.96;100.00
45403;BME280;47427;51.976;5.326;2023-01-31T15:59:13;102015.28;;;8.00;100.00
45403;BME280;47427;51.976;5.326;2023-01-31T16:02:34;102010.00;;;7.98;100.00
45403;BME280;47427;51.976;5.326;2023-01-31T16:05:59;102017.00;;;7.99;100.00
45403;BME280;47427;51.976;5.326;2023-01-31T16:09:31;102014.50;;;8.01;100.00
45403;BME280;47427;51.976;5.326;2023-01-31T16:12:56;102014.56;;;8.02;100.00
45403;BME280;47427;51.976;5.326;2023-01-31T16:16:18;102030.16;;;8.01;100.00
45403;BME280;47427;51.976;5.326;2023-01-31T16:19:40;102024.41;;;7.92;100.00
45403;BME280;47427;51.976;5.326;2023-01-31T16:23:16;102047.81;;;7.74;100.00
45403;BME280;47427;51.976;5.326;2023-01-31T16:27:12;102049.22;;;7.37;100.00
45403;BME280;47427;51.976;5.326;2023-01-31T16:30:35;102049.56;;;7.29;100.00
45403;BME280;47427;51.976;5.326;2023-01-31T16:34:00;102063.31;;;7.11;100.00
45403;BME280;47427;51.976;5.326;2023-01-31T16:37:39;102054.94;;;7.02;100.00
45403;BME280;47427;51.976;5.326;2023-01-31T16:41:01;102066.72;;;6.95;100.00
45403;BME280;47427;51.976;5.326;2023-01-31T16:44:48;102056.63;;;6.87;100.00
45403;BME280;47427;51.976;5.326;2023-01-31T16:52:16;102043.66;;;6.73;100.00
45403;BME280;47427;51.976;5.326;2023-01-31T16:55:39;102036.59;;;6.58;100.00
45403;BME280;47427;51.976;5.326;2023-01-31T16:59:02;102038.25;;;6.42;100.00
45403;BME280;47427;51.976;5.326;2023-01-31T17:02:34;102037.19;;;6.39;100.00
45403;BME280;47427;51.976;5.326;2023-01-31T17:06:00;102033.03;;;6.14;100.00
45403;BME280;47427;51.976;5.326;2023-01-31T17:09:22;102040.25;;;6.18;100.00
45403;BME280;47427;51.976;5.326;2023-01-31T17:12:45;102046.66;;;6.10;100.00
45403;BME280;47427;51.976;5.326;2023-01-31T17:16:22;102053.09;;;6.02;100.00
45403;BME280;47427;51.976;5.326;2023-01-31T17:19:47;102054.78;;;6.01;100.00
45403;BME280;47427;51.976;5.326;2023-01-31T17:23:11;102051.91;;;5.97;100.00
45403;BME280;47427;51.976;5.326;2023-01-31T17:26:32;102045.09;;;5.99;100.00
45403;BME280;47427;51.976;5.326;2023-01-31T17:29:54;102040.06;;;6.02;100.00
45403;BME280;47427;51.976;5.326;2023-01-31T17:33:16;102043.06;;;5.95;100.00
45403;BME280;47427;51.976;5.326;2023-01-31T17:36:38;102044.19;;;5.85;100.00
45403;BME280;47427;51.976;5.326;2023-01-31T17:40:00;102053.28;;;5.78;100.00
45403;BME280;47427;51.976;5.326;2023-01-31T17:43:22;102051.56;;;5.79;100.00
45403;BME280;47427;51.976;5.326;2023-01-31T17:46:45;102049.69;;;5.76;100.00
45403;BME280;47427;51.976;5.326;2023-01-31T17:50:13;102052.19;;;5.75;100.00
45403;BME280;47427;51.976;5.326;2023-01-31T17:53:56;102059.59;;;5.69;100.00
45403;BME280;47427;51.976;5.326;2023-01-31T17:57:18;102062.31;;;5.70;100.00
45403;BME280;47427;51.976;5.326;2023-01-31T18:00:41;102071.28;;;5.62;100.00
45403;BME280;47427;51.976;5.326;2023-01-31T18:04:03;102068.19;;;5.54;100.00
45403;BME280;47427;51.976;5.326;2023-01-31T18:07:26;102057.69;;;5.39;100.00
45403;BME280;47427;51.976;5.326;2023-01-31T18:10:48;102065.69;;;5.56;100.00
45403;BME280;47427;51.976;5.326;2023-01-31T18:14:12;102062.78;;;5.64;100.00
45403;BME280;47427;51.976;5.326;2023-01-31T18:17:36;102060.41;;;5.68;100.00
45403;BME280;47427;51.976;5.326;2023-01-31T18:20:57;102060.50;;;5.56;100.00
45403;BME280;47427;51.976;5.326;2023-01-31T18:24:20;102058.91;;;5.58;100.00
45403;BME280;47427;51.976;5.326;2023-01-31T18:27:43;102061.47;;;5.31;100.00
45403;BME280;47427;51.976;5.326;2023-01-31T18:31:07;102064.38;;;5.22;100.00
45403;BME280;47427;51.976;5.326;2023-01-31T18:34:32;102069.38;;;5.33;100.00
45403;BME280;47427;51.976;5.326;2023-01-31T18:37:55;102059.28;;;5.24;100.00
45403;BME280;47427;51.976;5.326;2023-01-31T18:41:19;102060.59;;;5.06;100.00
45403;BME280;47427;51.976;5.326;2023-01-31T18:44:43;102056.75;;;4.87;100.00
45403;BME280;47427;51.976;5.326;2023-01-31T18:48:05;102066.75;;;4.81;100.00
45403;BME280;47427;51.976;5.326;2023-01-31T18:51:26;102068.38;;;4.67;100.00
45403;BME280;47427;51.976;5.326;2023-01-31T18:54:49;102064.84;;;4.53;100.00
45403;BME280;47427;51.976;5.326;2023-01-31T18:58:13;102062.81;;;4.49;100.00
45403;BME280;47427;51.976;5.326;2023-01-31T19:01:37;102078.66;;;4.41;100.00
45403;BME280;47427;51.976;5.326;2023-01-31T19:05:01;102077.66;;;4.39;100.00
45403;BME280;47427;51.976;5.326;2023-01-31T19:08:23;102068.69;;;4.47;100.00
45403;BME280;47427;51.976;5.326;2023-01-31T19:11:45;102068.28;;;4.41;100.00
45403;BME280;47427;51.976;5.326;2023-01-31T19:15:10;102072.91;;;4.70;100.00
45403;BME280;47427;51.976;5.326;2023-01-31T19:18:33;102067.97;;;4.86;100.00
45403;BME280;47427;51.976;5.326;2023-01-31T19:21:56;102072.16;;;5.09;100.00
45403;BME280;47427;51.976;5.326;2023-01-31T19:25:18;102066.72;;;5.06;100.00
45403;BME280;47427;51.976;5.326;2023-01-31T19:28:41;102061.50;;;5.06;100.00
45403;BME280;47427;51.976;5.326;2023-01-31T19:32:04;102072.75;;;5.18;100.00
45403;BME280;47427;51.976;5.326;2023-01-31T19:35:29;102072.75;;;5.18;100.00
45403;BME280;47427;51.976;5.326;2023-01-31T19:38:52;102085.53;;;5.02;100.00
45403;BME280;47427;51.976;5.326;2023-01-31T19:42:14;102078.13;;;4.83;100.00
45403;BME280;47427;51.976;5.326;2023-01-31T19:45:36;102070.81;;;4.77;100.00
45403;BME280;47427;51.976;5.326;2023-01-31T19:48:59;102062.66;;;4.85;100.00
45403;BME280;47427;51.976;5.326;2023-01-31T19:52:20;102057.47;;;4.85;100.00
45403;BME280;47427;51.976;5.326;2023-01-31T19:55:42;102063.84;;;4.76;100.00
45403;BME280;47427;51.976;5.326;2023-01-31T19:59:05;102064.53;;;4.74;100.00
45403;BME280;47427;51.976;5.326;2023-01-31T20:02:26;102059.94;;;4.58;100.00
45403;BME280;47427;51.976;5.326;2023-01-31T20:05:48;102058.16;;;4.57;100.00
45403;BME280;47427;51.976;5.326;2023-01-31T20:09:10;102065.63;;;4.52;100.00
45403;BME280;47427;51.976;5.326;2023-01-31T20:12:40;102067.44;;;4.53;100.00
45403;BME280;47427;51.976;5.326;2023-01-31T20:16:09;102070.25;;;4.56;100.00